Time;durP1;ratioP1;P1;durP2;ratioP2;P2;SDS_P1;SDS_P2;PMS_P1;PMS_P2;Temp;Humidity;BMP_temperature;BMP_pressure;BME280_temperature;BME280_humidity;BME280_pressure;Samples;Min_cycle;Max_cycle;Signal;HPM_P1;HPM_P2
2022/04/16 00:01:24;;;;;;;21.20;15.77;;;;;;;7.99;86.05;102935.66;5076368;28;20359;-62
2022/04/16 00:03:50;;;;;;;19.17;15.48;;;;;;;8.02;85.62;102936.66;5076511;28;20060;-61
2022/04/16 00:06:15;;;;;;;19.35;16.33;;;;;;;7.97;85.61;102932.13;5076322;28;20033;-63
2022/04/16 00:08:40;;;;;;;20.60;16.50;;;;;;;7.99;86.10;102933.06;5076501;28;20043;-61
2022/04/16 00:11:06;;;;;;;20.92;16.02;;;;;;;7.97;85.97;102938.22;5076092;28;20034;-62
2022/04/16 00:13:32;;;;;;;18.92;15.57;;;;;;;7.94;86.07;102932.94;5076207;28;20040;-61
2022/04/16 00:15:58;;;;;;;20.65;15.85;;;;;;;7.96;86.04;102933.00;5076156;28;20039;-62
2022/04/16 00:18:24;;;;;;;21.15;16.50;;;;;;;7.94;85.96;102932.94;5076068;28;20025;-62
2022/04/16 00:20:50;;;;;;;20.65;15.48;;;;;;;7.87;85.91;102932.69;5075725;28;20028;-62
2022/04/16 00:23:19;;;;;;;19.33;15.63;;;;;;;7.83;86.15;102944.75;5076145;28;20036;-61
2022/04/16 00:25:45;;;;;;;20.95;15.48;;;;;;;7.77;86.59;102928.94;5075773;28;20127;-61
2022/04/16 00:28:10;;;;;;;19.48;15.60;;;;;;;7.60;86.34;102910.16;5075784;28;20036;-63
2022/04/16 00:30:37;;;;;;;20.70;16.65;;;;;;;7.68;87.13;102934.72;5073461;28;20028;-62
2022/04/16 00:33:12;;;;;;;20.67;16.02;;;;;;;7.69;87.18;102935.59;5075665;28;20082;-61
2022/04/16 00:35:38;;;;;;;21.35;17.00;;;;;;;7.63;87.26;102938.00;5075902;28;20024;-61
2022/04/16 00:38:03;;;;;;;21.52;17.17;;;;;;;7.54;87.43;102933.41;5075913;28;20394;-62
2022/04/16 00:40:29;;;;;;;24.58;16.88;;;;;;;7.60;87.44;102943.16;5075648;28;20420;-62
2022/04/16 00:42:55;;;;;;;23.95;17.02;;;;;;;7.58;87.41;102943.09;5075538;28;20062;-61
2022/04/16 00:45:20;;;;;;;22.70;17.55;;;;;;;7.51;87.67;102942.81;5075507;28;20443;-61
2022/04/16 00:47:46;;;;;;;25.00;16.60;;;;;;;7.52;88.17;102952.41;5075486;28;20036;-61
2022/04/16 00:50:12;;;;;;;21.45;16.73;;;;;;;7.47;88.35;102948.78;5075548;28;20454;-61
2022/04/16 00:52:39;;;;;;;21.52;16.98;;;;;;;7.50;88.76;102949.75;5075335;28;20448;-62
2022/04/16 00:55:06;;;;;;;24.38;17.38;;;;;;;7.47;88.41;102935.75;5075720;28;20024;-62
2022/04/16 00:57:31;;;;;;;24.98;16.63;;;;;;;7.49;88.68;102948.00;5075087;28;20044;-61
2022/04/16 00:59:57;;;;;;;24.85;16.92;;;;;;;7.46;88.50;102937.47;5074868;28;20067;-62
2022/04/16 01:02:22;;;;;;;22.55;17.58;;;;;;;7.39;88.79;102932.91;5075482;28;20435;-62
2022/04/16 01:04:48;;;;;;;21.50;17.25;;;;;;;7.40;88.96;102939.00;5075319;28;20032;-61
2022/04/16 01:07:13;;;;;;;23.83;17.70;;;;;;;7.33;89.34;102944.00;5075470;28;20519;-61
2022/04/16 01:09:39;;;;;;;22.52;17.95;;;;;;;7.33;89.84;102946.59;5075073;28;20078;-61
2022/04/16 01:12:05;;;;;;;22.80;18.17;;;;;;;7.32;89.26;102947.44;5075169;28;20036;-62
2022/04/16 01:14:32;;;;;;;24.02;18.10;;;;;;;7.34;89.76;102943.16;5075548;28;20043;-62
2022/04/16 01:16:58;;;;;;;24.75;17.52;;;;;;;7.39;89.78;102950.25;5075330;28;20035;-61
2022/04/16 01:19:24;;;;;;;26.52;18.27;;;;;;;7.23;89.45;102931.50;5075338;28;20036;-62
2022/04/16 01:21:50;;;;;;;25.75;18.13;;;;;;;7.34;89.80;102947.47;5075229;28;20119;-62
2022/04/16 01:24:15;;;;;;;26.25;18.42;;;;;;;7.25;90.02;102952.41;5074928;28;20123;-61
2022/04/16 01:26:43;;;;;;;23.98;18.30;;;;;;;7.17;90.35;102954.72;5074931;28;20037;-61
2022/04/16 01:29:10;;;;;;;27.88;19.63;;;;;;;7.15;90.48;102953.78;5074909;28;20376;-62
2022/04/16 01:31:35;;;;;;;24.67;18.77;;;;;;;7.14;90.49;102953.72;5074931;28;20466;-63
2022/04/16 01:34:01;;;;;;;24.67;18.77;;;;;;;7.10;90.75;102959.69;5075184;28;20060;-61
2022/04/16 01:36:30;;;;;;;27.70;19.35;;;;;;;7.02;91.22;102962.00;5075067;28;20053;-62
2022/04/16 01:38:56;;;;;;;25.38;19.38;;;;;;;6.99;91.34;102961.91;5074697;28;20036;-62
2022/04/16 01:41:23;;;;;;;25.80;20.45;;;;;;;7.01;91.45;102967.16;5074735;28;20032;-62
2022/04/16 01:43:48;;;;;;;28.08;20.55;;;;;;;6.94;91.62;102960.84;5074859;28;20033;-61
2022/04/16 01:46:13;;;;;;;30.95;21.20;;;;;;;6.98;92.07;102967.94;5075207;28;20110;-61
2022/04/16 01:48:39;;;;;;;28.52;20.70;;;;;;;7.02;91.82;102964.63;5075033;28;20033;-62
2022/04/16 01:51:05;;;;;;;26.55;20.45;;;;;;;6.87;91.94;102938.03;5074873;28;20028;-62
2022/04/16 01:53:30;;;;;;;28.85;20.27;;;;;;;6.96;92.16;102959.19;5074372;28;20042;-61
2022/04/16 01:55:55;;;;;;;27.05;20.50;;;;;;;6.94;92.08;102966.94;5075257;28;20028;-60
2022/04/16 01:58:21;;;;;;;30.55;21.02;;;;;;;6.87;92.11;102956.25;5074922;28;20025;-62
2022/04/16 02:00:48;;;;;;;28.42;20.67;;;;;;;6.77;92.19;102943.75;5074647;28;20060;-61
2022/04/16 02:03:14;;;;;;;30.35;21.15;;;;;;;6.88;92.74;102965.84;5074820;28;20518;-61
2022/04/16 02:05:40;;;;;;;30.48;20.80;;;;;;;6.89;92.89;102965.91;5074696;28;20024;-62
2022/04/16 02:08:06;;;;;;;29.50;20.95;;;;;;;6.92;92.79;102962.53;5074562;28;20356;-62
2022/04/16 02:10:33;;;;;;;28.70;20.67;;;;;;;6.85;92.75;102965.72;5077099;28;20131;-61
2022/04/16 02:12:58;;;;;;;29.73;21.52;;;;;;;6.84;93.71;102971.75;5078343;28;20435;-61
2022/04/16 02:15:23;;;;;;;30.17;21.35;;;;;;;6.84;93.16;102974.38;5078658;28;20028;-61
2022/04/16 02:17:48;;;;;;;30.35;20.80;;;;;;;6.78;93.63;102974.13;5078602;28;20032;-61
2022/04/16 02:20:14;;;;;;;32.33;21.25;;;;;;;6.79;93.78;102968.09;5078568;28;20050;-62
2022/04/16 02:22:44;;;;;;;28.80;21.52;;;;;;;6.79;93.85;102970.69;5078057;28;20028;-61
2022/04/16 02:25:11;;;;;;;28.55;20.58;;;;;;;6.81;94.09;102974.25;5078350;28;20094;-61
2022/04/16 02:27:36;;;;;;;30.90;20.50;;;;;;;6.84;93.77;102969.16;5078515;28;20024;-62
2022/04/16 02:30:07;;;;;;;32.80;21.80;;;;;;;6.76;94.03;102970.59;5078248;28;20124;-61
2022/04/16 02:32:36;;;;;;;31.65;21.67;;;;;;;6.75;94.36;102969.72;5078448;28;20088;-61
2022/04/16 02:35:02;;;;;;;29.67;21.10;;;;;;;6.72;94.16;102972.22;5078202;28;20064;-61
2022/04/16 02:37:27;;;;;;;29.85;22.08;;;;;;;6.71;94.14;102973.03;5078069;28;20392;-61
2022/04/16 02:39:52;;;;;;;29.95;21.70;;;;;;;6.67;94.71;102975.47;5077744;28;20071;-62
2022/04/16 02:42:18;;;;;;;28.83;21.48;;;;;;;6.66;94.55;102973.69;5077963;28;20113;-62
2022/04/16 02:47:29;;;;;;;32.55;23.15;;;;;;;6.58;94.93;102982.09;5078201;28;20042;-61
2022/04/16 02:49:55;;;;;;;31.00;22.27;;;;;;;6.62;95.23;102976.19;5077610;28;20036;-60
2022/04/16 02:52:22;;;;;;;31.17;21.77;;;;;;;6.61;95.40;102971.81;5077737;28;20036;-63
2022/04/16 02:54:47;;;;;;;28.90;21.80;;;;;;;6.70;94.88;102983.41;5077770;28;20111;-62
2022/04/16 02:57:13;;;;;;;31.98;22.17;;;;;;;6.66;94.71;102974.59;5077649;28;20429;-62
2022/04/16 02:59:38;;;;;;;31.58;23.08;;;;;;;6.58;94.83;102979.50;5077728;28;20029;-61
2022/04/16 03:02:03;;;;;;;30.70;21.35;;;;;;;6.57;95.13;102977.75;5077281;28;20106;-61
2022/04/16 03:04:29;;;;;;;29.05;22.02;;;;;;;6.50;95.58;102982.66;5077631;28;20027;-61
2022/04/16 03:06:55;;;;;;;34.28;23.23;;;;;;;6.56;95.33;102991.59;5077379;28;20377;-61
2022/04/16 03:09:20;;;;;;;32.15;22.23;;;;;;;6.54;95.66;102993.25;5077408;28;20111;-62
2022/04/16 03:11:45;;;;;;;33.30;23.17;;;;;;;6.41;95.40;102974.47;5077372;28;20060;-61
2022/04/16 03:19:38;;;;;;;30.45;22.60;;;;;;;6.41;96.29;102993.56;5076999;28;20051;-63
2022/04/16 03:22:04;;;;;;;32.58;22.58;;;;;;;6.33;96.11;102994.13;5076255;28;20028;-62
2022/04/16 03:24:30;;;;;;;34.83;23.42;;;;;;;6.35;96.06;102998.56;5077114;28;20024;-62
2022/04/16 03:26:55;;;;;;;32.25;23.27;;;;;;;6.34;96.67;102999.38;5077391;28;20059;-62
2022/04/16 03:29:21;;;;;;;35.42;23.88;;;;;;;6.28;96.44;102986.16;5076991;28;20435;-62
2022/04/16 03:31:46;;;;;;;31.52;22.95;;;;;;;6.28;96.30;102996.53;5076958;28;20028;-61
2022/04/16 03:34:11;;;;;;;31.48;23.30;;;;;;;6.26;96.56;102998.19;5076733;28;20424;-61
2022/04/16 03:36:36;;;;;;;37.75;23.05;;;;;;;6.21;96.87;102991.94;5077240;28;20093;-61
2022/04/16 03:39:03;;;;;;;36.50;24.20;;;;;;;6.21;97.10;102999.75;5076766;28;20036;-60
2022/04/16 03:41:28;;;;;;;34.92;24.23;;;;;;;6.18;97.40;102997.91;5076947;28;20115;-62
2022/04/16 03:43:53;;;;;;;38.70;23.80;;;;;;;6.17;97.39;102987.44;5076695;28;20446;-62
2022/04/16 03:46:18;;;;;;;33.47;23.20;;;;;;;6.19;97.00;102994.50;5077039;28;20032;-61
2022/04/16 03:48:44;;;;;;;35.78;23.92;;;;;;;6.18;97.47;102997.03;5076623;28;20038;-61
2022/04/16 03:51:09;;;;;;;34.45;24.08;;;;;;;6.13;97.40;102996.84;5076759;28;20024;-62
2022/04/16 03:53:35;;;;;;;34.22;23.65;;;;;;;6.15;97.74;102995.19;5076545;28;20450;-62
2022/04/16 03:59:59;;;;;;;35.03;25.05;;;;;;;6.14;97.83;103002.94;5076372;28;20051;-61
2022/04/16 04:01:41;;;;;;;34.47;23.33;;;;;;;6.11;97.54;102979.41;5076060;28;20040;-61
2022/04/16 04:04:06;;;;;;;32.67;23.30;;;;;;;6.20;97.79;102996.25;5076354;28;20033;-62
2022/04/16 04:06:32;;;;;;;33.50;24.80;;;;;;;6.19;97.98;103004.00;5075201;28;20068;-62
2022/04/16 04:08:58;;;;;;;35.08;23.95;;;;;;;6.23;97.75;102998.97;5076184;28;20347;-60
2022/04/16 04:11:23;;;;;;;37.35;24.23;;;;;;;6.22;97.17;103001.53;5075916;28;20107;-61
2022/04/16 04:13:48;;;;;;;38.92;25.35;;;;;;;6.23;97.05;103009.34;5075014;28;20060;-61
2022/04/16 04:16:13;;;;;;;32.72;24.15;;;;;;;6.14;97.10;103006.41;5075994;28;20424;-61
2022/04/16 04:18:39;;;;;;;34.08;24.02;;;;;;;6.16;97.28;103007.38;5076176;28;20036;-62
2022/04/16 04:21:04;;;;;;;36.47;25.58;;;;;;;6.11;97.94;103008.00;5074673;28;20036;-61
2022/04/16 04:23:29;;;;;;;35.55;25.13;;;;;;;6.11;97.59;103011.47;5076374;28;20059;-61
2022/04/16 04:25:54;;;;;;;36.25;24.95;;;;;;;6.11;97.63;103013.19;5075934;28;20059;-61
2022/04/16 04:28:20;;;;;;;37.92;24.40;;;;;;;6.10;97.92;103012.31;5075723;28;20032;-62
2022/04/16 04:30:45;;;;;;;38.45;25.55;;;;;;;6.14;98.15;103021.13;5075935;28;20020;-62
2022/04/16 04:33:11;;;;;;;37.30;25.58;;;;;;;6.08;97.52;103028.66;5074900;28;20045;-62
2022/04/16 04:35:36;;;;;;;39.72;25.67;;;;;;;5.92;98.00;102998.59;5076023;28;20037;-60
2022/04/16 04:38:01;;;;;;;37.67;24.70;;;;;;;6.00;97.73;103025.78;5075648;28;20036;-62
2022/04/16 04:40:28;;;;;;;38.22;26.73;;;;;;;6.02;98.04;103034.53;5075512;28;20039;-61
2022/04/16 04:42:54;;;;;;;38.08;24.88;;;;;;;5.92;98.38;103037.56;5075327;28;20493;-60
2022/04/16 04:45:19;;;;;;;38.22;25.35;;;;;;;5.96;98.69;103031.66;5075589;28;20033;-62
2022/04/16 04:47:44;;;;;;;37.58;25.92;;;;;;;5.98;98.68;103042.13;5075789;28;20032;-62
2022/04/16 04:50:10;;;;;;;37.60;26.17;;;;;;;5.99;98.13;103051.69;5075593;28;20020;-62
2022/04/16 04:52:37;;;;;;;40.97;26.50;;;;;;;5.98;98.51;103042.13;5075371;28;20047;-62
2022/04/16 04:55:07;;;;;;;40.03;26.73;;;;;;;5.96;98.90;103047.25;5074996;28;20032;-62
2022/04/16 04:57:32;;;;;;;39.78;25.92;;;;;;;6.01;98.97;103037.06;5075225;28;20032;-61
2022/04/16 04:59:58;;;;;;;39.28;25.75;;;;;;;6.00;98.50;103041.38;5075033;28;20101;-61
2022/04/16 05:02:23;;;;;;;43.25;27.08;;;;;;;5.89;98.63;103030.53;5075469;28;20036;-60
2022/04/16 05:04:48;;;;;;;39.15;25.88;;;;;;;5.95;98.77;103053.28;5075124;28;20046;-61
2022/04/16 05:07:13;;;;;;;39.17;26.25;;;;;;;5.92;98.61;103046.25;5075319;28;20028;-61
2022/04/16 05:09:39;;;;;;;38.92;27.30;;;;;;;5.92;99.23;103063.53;5074777;28;20036;-61
2022/04/16 05:12:05;;;;;;;44.05;27.33;;;;;;;5.99;99.18;103062.97;5075402;28;20032;-62
2022/04/16 05:14:30;;;;;;;40.80;26.45;;;;;;;6.02;99.02;103062.22;5074726;28;20040;-59
2022/04/16 05:16:55;;;;;;;39.75;26.92;;;;;;;6.05;98.78;103058.03;5075043;28;20021;-59
2022/04/16 05:19:21;;;;;;;42.03;27.80;;;;;;;6.16;98.83;103069.75;5074966;28;20058;-60
2022/04/16 05:21:46;;;;;;;39.55;26.95;;;;;;;6.19;98.64;103061.19;5074913;28;20064;-61
2022/04/16 05:24:12;;;;;;;41.15;26.73;;;;;;;6.22;98.84;103066.53;5074954;28;20437;-60
2022/04/16 05:26:38;;;;;;;39.08;27.73;;;;;;;6.22;98.81;103063.91;5074757;28;20039;-60
2022/04/16 05:29:04;;;;;;;39.05;26.80;;;;;;;6.31;98.45;103068.59;5074514;28;20424;-61
2022/04/16 05:31:30;;;;;;;40.35;27.25;;;;;;;6.31;98.23;103069.47;5074962;28;20029;-61
2022/04/16 05:36:39;;;;;;;39.38;27.05;;;;;;;6.33;98.09;103074.72;5075037;28;20095;-62
2022/04/16 05:39:06;;;;;;;40.33;26.92;;;;;;;6.49;98.51;103071.91;5070542;28;20052;-62
2022/04/16 05:41:36;;;;;;;40.72;26.92;;;;;;;6.99;96.72;103081.63;5054556;28;20033;-62
2022/04/16 05:44:03;;;;;;;41.80;27.30;;;;;;;7.50;94.35;103081.72;5055571;28;20052;-61
2022/04/16 05:46:28;;;;;;;38.17;26.30;;;;;;;8.33;91.74;103060.22;5059873;28;20135;-62
2022/04/16 05:48:53;;;;;;;38.92;25.05;;;;;;;8.96;87.22;103073.44;5061289;28;20071;-63
2022/04/16 05:51:20;;;;;;;33.95;23.50;;;;;;;8.99;86.26;103073.53;5060976;28;20048;-63
2022/04/16 05:53:47;;;;;;;33.92;24.10;;;;;;;9.19;85.21;103076.69;5061078;28;20036;-61
2022/04/16 05:56:14;;;;;;;36.03;24.52;;;;;;;9.10;85.14;103085.16;5061227;28;20460;-61
2022/04/16 05:58:39;;;;;;;32.60;23.75;;;;;;;9.08;85.38;103089.47;5061109;28;20032;-61
2022/04/16 06:01:10;;;;;;;34.33;24.42;;;;;;;9.26;85.05;103083.88;5061146;28;20036;-61
2022/04/16 06:03:42;;;;;;;33.42;23.77;;;;;;;9.27;83.90;103093.47;5061063;28;20359;-61
2022/04/16 06:06:08;;;;;;;31.65;24.30;;;;;;;9.16;85.11;103093.19;5061232;28;20102;-62
2022/04/16 06:08:35;;;;;;;34.22;24.23;;;;;;;9.26;84.01;103095.19;5061204;28;20119;-62
2022/04/16 06:11:00;;;;;;;34.22;24.85;;;;;;;9.34;84.05;103098.94;5061532;28;20111;-62
2022/04/16 06:13:26;;;;;;;32.78;24.08;;;;;;;9.63;82.56;103112.78;5061062;28;20444;-62
2022/04/16 06:15:51;;;;;;;33.00;23.77;;;;;;;9.94;81.87;103114.47;5060438;28;20112;-62
2022/04/16 06:18:16;;;;;;;31.70;24.17;;;;;;;10.04;81.10;103095.53;5060812;28;20033;-63
2022/04/16 06:20:42;;;;;;;33.03;24.10;;;;;;;10.16;80.54;103108.03;5060703;28;20116;-62
2022/04/16 06:23:07;;;;;;;35.45;25.27;;;;;;;9.89;81.49;103120.41;5063486;28;20020;-63
2022/04/16 06:25:33;;;;;;;33.30;24.80;;;;;;;9.82;81.75;103116.75;5061102;28;20037;-63
2022/04/16 06:27:59;;;;;;;36.45;25.42;;;;;;;10.06;81.74;103120.00;5060948;28;20036;-62
2022/04/16 06:30:25;;;;;;;37.72;25.73;;;;;;;9.77;82.15;103108.78;5060882;28;20072;-63
2022/04/16 06:32:50;;;;;;;33.28;25.08;;;;;;;9.63;82.98;103114.50;5060642;28;20077;-62
2022/04/16 06:35:16;;;;;;;36.70;25.88;;;;;;;9.54;83.87;103109.00;5060911;28;20040;-62
2022/04/16 06:37:44;;;;;;;39.10;26.38;;;;;;;9.45;84.12;103114.00;5060933;28;20050;-62
2022/04/16 06:40:10;;;;;;;38.20;26.35;;;;;;;9.36;84.68;103120.72;5060871;28;20024;-62
2022/04/16 06:42:36;;;;;;;37.35;26.85;;;;;;;9.31;85.80;103114.50;5060963;28;20040;-62
2022/04/16 06:45:06;;;;;;;37.17;26.35;;;;;;;9.40;85.67;103108.66;5061018;28;20090;-62
2022/04/16 06:47:31;;;;;;;38.13;26.92;;;;;;;9.92;84.38;103118.75;5060737;28;20037;-61
2022/04/16 06:49:57;;;;;;;38.88;27.85;;;;;;;10.37;82.29;103115.56;5060710;28;20459;-64
2022/04/16 06:52:22;;;;;;;37.22;26.35;;;;;;;10.36;81.81;103111.19;5078497;28;20439;-62
2022/04/16 06:54:47;;;;;;;38.70;25.70;;;;;;;10.18;82.88;103113.31;5080741;28;20439;-61
2022/04/16 06:57:13;;;;;;;38.85;26.27;;;;;;;10.07;83.66;103123.50;5077084;28;20029;-62
2022/04/16 06:59:39;;;;;;;38.88;27.50;;;;;;;10.03;83.33;103119.94;5077650;28;20039;-61
2022/04/16 07:02:06;;;;;;;40.97;26.98;;;;;;;9.99;83.22;103123.31;5077333;28;20090;-62
2022/04/16 07:04:32;;;;;;;38.53;26.77;;;;;;;10.13;83.38;103115.81;5077225;28;20029;-62
2022/04/16 07:06:57;;;;;;;40.05;26.52;;;;;;;10.35;83.02;103117.25;5077397;28;20021;-59
2022/04/16 07:09:22;;;;;;;37.97;25.85;;;;;;;10.74;81.40;103125.13;5077859;28;20389;-60
2022/04/16 07:11:48;;;;;;;37.65;25.70;;;;;;;10.90;80.19;103122.03;5077368;28;20036;-62
2022/04/16 07:14:13;;;;;;;41.33;25.15;;;;;;;10.99;79.32;103109.09;5077373;28;20025;-62
2022/04/16 07:16:38;;;;;;;35.92;24.63;;;;;;;11.10;79.73;103117.19;5077172;28;20051;-61
2022/04/16 07:19:03;;;;;;;37.00;24.85;;;;;;;11.00;78.75;103110.88;5077119;28;20439;-60
2022/04/16 07:21:29;;;;;;;35.85;24.00;;;;;;;11.01;79.46;103120.50;5076953;28;20143;-62
2022/04/16 07:23:54;;;;;;;36.70;24.65;;;;;;;10.95;78.92;103117.75;5077369;28;20044;-61
2022/04/16 07:26:19;;;;;;;35.30;24.48;;;;;;;11.06;79.19;103120.63;5076902;28;20028;-62
2022/04/16 07:28:44;;;;;;;34.22;24.20;;;;;;;10.89;79.65;103120.25;5077109;28;20035;-61
2022/04/16 07:31:10;;;;;;;36.67;24.88;;;;;;;10.88;80.06;103128.06;5076995;28;20044;-62
2022/04/16 07:33:35;;;;;;;32.17;23.27;;;;;;;10.92;79.85;103122.91;5075764;28;20056;-62
2022/04/16 07:36:01;;;;;;;35.08;24.88;;;;;;;11.02;79.58;103129.25;5076927;28;20032;-61
2022/04/16 07:38:27;;;;;;;32.92;23.38;;;;;;;10.95;78.92;103132.56;5076757;28;20033;-61
2022/04/16 07:40:54;;;;;;;33.95;23.13;;;;;;;10.94;79.08;103126.44;5076856;28;20250;-61
2022/04/16 07:43:19;;;;;;;35.72;23.77;;;;;;;10.85;79.43;103128.88;5076785;28;20039;-61
2022/04/16 07:45:45;;;;;;;34.15;24.48;;;;;;;10.93;79.14;103124.69;5076813;28;20427;-60
2022/04/16 07:48:10;;;;;;;35.25;24.13;;;;;;;11.00;79.18;103134.47;5076841;28;20449;-61
2022/04/16 07:50:35;;;;;;;36.47;24.92;;;;;;;10.99;79.33;103124.81;5076609;28;20032;-61
2022/04/16 07:53:02;;;;;;;35.13;24.20;;;;;;;11.08;79.81;103132.00;5076810;28;20335;-61
2022/04/16 07:55:28;;;;;;;33.80;23.38;;;;;;;11.13;79.26;103130.34;5076695;28;20024;-61
2022/04/16 07:57:54;;;;;;;35.25;24.10;;;;;;;11.22;78.85;103127.06;5076518;28;20028;-63
2022/04/16 08:00:19;;;;;;;35.65;23.40;;;;;;;11.28;77.83;103132.41;5076263;28;20034;-61
2022/04/16 08:02:44;;;;;;;32.78;23.25;;;;;;;11.26;77.96;103126.25;5076052;28;20107;-62
2022/04/16 08:05:10;;;;;;;32.90;23.05;;;;;;;11.28;77.92;103130.66;5076077;28;20442;-62
2022/04/16 08:07:35;;;;;;;32.83;22.35;;;;;;;11.30;77.51;103134.19;5075851;28;20024;-61
2022/04/16 08:10:00;;;;;;;31.27;22.17;;;;;;;11.34;77.26;103135.16;5076508;28;20321;-61
2022/04/16 08:12:26;;;;;;;32.33;22.23;;;;;;;11.39;77.07;103141.38;5076221;28;20032;-62
2022/04/16 08:14:52;;;;;;;33.08;22.85;;;;;;;11.42;76.73;103131.84;5073255;28;20037;-62
2022/04/16 08:17:17;;;;;;;30.65;21.30;;;;;;;11.60;75.79;103135.69;5075970;28;20128;-62
2022/04/16 08:19:43;;;;;;;29.52;20.88;;;;;;;11.62;75.62;103133.94;5075890;28;20060;-62
2022/04/16 08:22:11;;;;;;;28.23;20.95;;;;;;;11.66;75.60;103128.78;5076034;28;20173;-61
2022/04/16 08:27:03;;;;;;;27.98;20.42;;;;;;;11.79;75.13;103129.94;5075987;28;20044;-62
2022/04/16 08:29:28;;;;;;;29.92;20.42;;;;;;;12.00;75.20;103137.31;5076166;28;20021;-63
2022/04/16 08:31:53;;;;;;;29.63;20.27;;;;;;;12.20;74.18;103131.53;5075466;28;20432;-61
2022/04/16 08:34:18;;;;;;;24.83;18.52;;;;;;;12.24;72.73;103129.84;5076039;28;20036;-61
2022/04/16 08:36:43;;;;;;;27.25;18.75;;;;;;;12.28;72.24;103146.53;5075716;28;20040;-61
2022/04/16 08:39:09;;;;;;;27.40;19.23;;;;;;;12.35;72.04;103136.16;5075294;28;20098;-61
2022/04/16 08:41:36;;;;;;;27.95;19.30;;;;;;;12.35;72.08;103135.25;5075806;28;20024;-63
2022/04/16 08:44:02;;;;;;;25.33;18.27;;;;;;;12.44;71.25;103138.94;5075630;28;20032;-62
2022/04/16 08:46:30;;;;;;;24.77;17.77;;;;;;;12.57;71.12;103137.38;5075457;28;20024;-61
2022/04/16 08:48:58;;;;;;;24.23;17.88;;;;;;;12.69;70.15;103141.91;5075455;28;20063;-61
2022/04/16 08:51:25;;;;;;;24.90;17.27;;;;;;;12.96;68.82;103149.31;5075170;28;20396;-62
2022/04/16 08:53:51;;;;;;;23.42;16.60;;;;;;;13.62;66.19;103141.41;5075588;28;20059;-61
2022/04/16 08:56:16;;;;;;;22.67;16.40;;;;;;;14.12;63.90;103139.25;5075577;28;20495;-63
2022/04/16 08:58:42;;;;;;;21.67;15.93;;;;;;;14.98;61.25;103124.94;5075349;28;20116;-61
2022/04/16 09:01:08;;;;;;;22.83;15.98;;;;;;;15.69;59.20;103136.66;5075589;28;20044;-62
2022/04/16 09:03:35;;;;;;;20.02;15.10;;;;;;;15.92;57.67;103130.53;5075375;28;20427;-62
2022/04/16 09:06:01;;;;;;;19.52;14.70;;;;;;;15.56;57.20;103134.00;5075542;28;20094;-62
2022/04/16 09:08:31;;;;;;;19.13;14.65;;;;;;;15.21;58.74;103123.28;5074185;28;20041;-62
2022/04/16 09:11:07;;;;;;;20.90;15.35;;;;;;;15.11;61.34;103115.31;5075144;28;20029;-61
2022/04/16 09:13:33;;;;;;;16.70;13.52;;;;;;;14.83;58.57;103124.88;5075034;28;20040;-62
2022/04/16 09:16:04;;;;;;;20.67;13.40;;;;;;;14.80;60.84;103125.72;5074807;28;20107;-61
2022/04/16 09:18:29;;;;;;;18.33;14.35;;;;;;;14.73;60.33;103126.53;5073765;28;20028;-61
2022/04/16 09:20:54;;;;;;;21.77;15.32;;;;;;;14.63;60.86;103114.19;5073885;28;20033;-62
2022/04/16 09:23:21;;;;;;;20.02;15.15;;;;;;;14.53;60.71;103121.19;5075004;28;20020;-62
2022/04/16 09:25:48;;;;;;;20.05;14.75;;;;;;;14.45;59.55;103127.25;5074963;28;20036;-64
2022/04/16 09:28:16;;;;;;;16.55;13.25;;;;;;;14.21;60.70;103120.00;5075054;28;20035;-62
2022/04/16 09:30:51;;;;;;;16.08;12.52;;;;;;;14.27;61.73;103118.31;5075309;28;20180;-62
2022/04/16 09:33:17;;;;;;;17.75;13.15;;;;;;;14.08;60.50;103113.75;5074604;28;20076;-63
2022/04/16 09:35:42;;;;;;;17.45;13.25;;;;;;;14.12;61.62;103122.56;5075033;28;20371;-63
2022/04/16 09:38:12;;;;;;;19.83;14.00;;;;;;;14.21;62.06;103118.25;5074902;28;20035;-62
2022/04/16 09:40:38;;;;;;;16.17;12.07;;;;;;;14.44;59.97;103120.22;5074398;28;20123;-61
2022/04/16 09:43:05;;;;;;;15.65;11.13;;;;;;;14.85;59.53;103115.22;5075028;28;20123;-62
2022/04/16 09:45:32;;;;;;;15.93;12.20;;;;;;;15.13;57.50;103106.53;5074977;28;20056;-63
2022/04/16 09:47:58;;;;;;;7.10;5.85;;;;;;;15.37;51.41;103113.66;5074698;28;20028;-63
2022/04/16 09:50:27;;;;;;;8.57;6.32;;;;;;;15.93;50.94;103105.00;5074889;28;20470;-62
2022/04/16 09:52:57;;;;;;;8.95;6.47;;;;;;;16.22;50.27;103097.06;5075050;28;20044;-62
2022/04/16 09:55:27;;;;;;;6.65;5.22;;;;;;;16.30;49.03;103112.03;5074606;28;20037;-63
2022/04/16 09:58:04;;;;;;;7.80;6.15;;;;;;;16.03;49.01;103101.47;5074619;28;20358;-62
2022/04/16 10:00:33;;;;;;;11.02;8.20;;;;;;;15.63;49.76;103112.00;5074691;28;20491;-62
2022/04/16 10:02:59;;;;;;;9.90;7.53;;;;;;;15.87;50.43;103105.00;5074908;28;20094;-63
2022/04/16 10:05:25;;;;;;;11.85;8.23;;;;;;;15.86;49.72;103104.13;5074566;28;20036;-62
2022/04/16 10:07:54;;;;;;;9.70;7.82;;;;;;;16.15;51.06;103093.53;5074029;28;20043;-63
2022/04/16 10:10:28;;;;;;;10.10;7.90;;;;;;;16.34;50.50;103095.28;5074767;28;20130;-62
2022/04/16 10:13:04;;;;;;;9.55;7.32;;;;;;;16.21;48.79;103096.19;5074536;28;20044;-62
2022/04/16 10:15:55;;;;;;;10.38;8.23;;;;;;;15.84;49.75;103090.03;5074592;28;20052;-63
2022/04/16 10:18:20;;;;;;;11.25;8.13;;;;;;;15.86;50.53;103083.00;5074497;28;20041;-63
2022/04/16 10:20:58;;;;;;;10.02;7.82;;;;;;;15.95;50.57;103084.72;5073946;28;20366;-63
2022/04/16 10:23:41;;;;;;;9.77;7.95;;;;;;;16.13;51.93;103095.31;5074014;28;20040;-62
2022/04/16 10:26:10;;;;;;;11.93;9.05;;;;;;;15.74;49.77;103100.59;5074629;28;20123;-62
2022/04/16 10:28:37;;;;;;;11.40;7.65;;;;;;;15.76;49.49;103101.47;5074522;28;20119;-62
2022/04/16 10:31:02;;;;;;;9.02;7.03;;;;;;;16.03;48.93;103096.19;5074454;28;20055;-62
2022/04/16 10:33:28;;;;;;;8.32;6.72;;;;;;;16.09;47.84;103096.22;5077802;28;20078;-62
2022/04/16 10:35:56;;;;;;;7.25;5.95;;;;;;;16.15;47.79;103093.53;5078029;28;20048;-62
2022/04/16 10:38:30;;;;;;;7.55;6.22;;;;;;;16.21;47.70;103090.03;5078228;28;20028;-64
2022/04/16 10:41:02;;;;;;;8.68;5.82;;;;;;;16.40;48.21;103088.25;5078016;28;20025;-64
2022/04/16 10:43:31;;;;;;;;;;;;;;;16.48;47.85;103084.69;5077934;28;20063;-64
2022/04/16 10:46:04;;;;;;;7.65;6.18;;;;;;;16.15;47.83;103090.91;5078352;28;19908;-63
2022/04/16 10:48:34;;;;;;;7.53;6.28;;;;;;;16.00;47.79;103094.44;5078047;28;20031;-64
2022/04/16 10:51:01;;;;;;;6.47;5.38;;;;;;;15.88;46.61;103093.56;5077781;28;20402;-63
2022/04/16 10:53:32;;;;;;;6.03;4.53;;;;;;;15.50;47.02;103098.75;5077723;28;20032;-63
2022/04/16 10:56:09;;;;;;;5.10;4.47;;;;;;;15.50;47.91;103096.97;5077203;28;20032;-63
2022/04/16 10:58:35;;;;;;;7.32;5.13;;;;;;;15.61;48.25;103089.09;5077633;28;20043;-62
2022/04/16 11:01:06;;;;;;;7.25;5.65;;;;;;;15.44;47.79;103101.34;5077971;28;20115;-63
2022/04/16 11:03:33;;;;;;;5.78;4.93;;;;;;;15.37;48.28;103089.91;5077740;28;20036;-62
2022/04/16 11:06:07;;;;;;;6.43;4.95;;;;;;;15.58;48.04;103087.38;5077685;28;20319;-63
2022/04/16 11:08:38;;;;;;;7.47;5.85;;;;;;;15.57;46.50;103096.16;5077265;28;20025;-62
2022/04/16 11:11:03;;;;;;;7.00;5.57;;;;;;;15.61;46.87;103095.25;5077443;28;20395;-62
2022/04/16 11:13:33;;;;;;;6.13;5.32;;;;;;;15.74;47.05;103105.88;5077490;28;20060;-62
2022/04/16 11:15:59;;;;;;;6.65;5.40;;;;;;;15.77;46.28;103095.28;5077514;28;20463;-62
2022/04/16 11:18:26;;;;;;;7.55;5.00;;;;;;;15.90;45.91;103091.81;5077290;28;20036;-62
2022/04/16 11:20:57;;;;;;;7.03;5.15;;;;;;;16.07;46.48;103084.75;5077152;28;20021;-62
2022/04/16 11:23:27;;;;;;;5.82;5.22;;;;;;;15.98;45.53;103097.94;5077043;28;20036;-63
2022/04/16 11:34:14;;;;;;;6.57;5.88;;;;;;;16.33;45.62;103080.31;5077046;28;20059;-63
2022/04/16 11:36:40;;;;;;;6.05;5.45;;;;;;;16.30;43.93;103072.38;5064888;28;20097;-58
2022/04/16 11:39:05;;;;;;;6.10;5.20;;;;;;;16.16;43.80;103060.97;5073486;28;20021;-64